Time;durP1;ratioP1;P1;durP2;ratioP2;P2;SDS_P1;SDS_P2;PMS_P1;PMS_P2;Temp;Humidity;BMP_temperature;BMP_pressure;BME280_temperature;BME280_humidity;BME280_pressure;Samples;Min_cycle;Max_cycle;Signal;HPM_P1;HPM_P2
2023/09/02 00:01:47;;;;;;;5.88;3.55;;;;;;;22.61;100.00;100892.00;5113781;28;20063;-75
2023/09/02 00:04:12;;;;;;;4.43;3.50;;;;;;;22.57;100.00;100925.06;5113771;28;20027;-73
2023/09/02 00:06:38;;;;;;;8.27;3.95;;;;;;;22.33;100.00;100820.28;5114565;28;20042;-75
2023/09/02 00:09:03;;;;;;;4.40;3.15;;;;;;;21.85;100.00;100818.19;5114805;28;20031;-75
2023/09/02 00:11:29;;;;;;;5.18;3.45;;;;;;;22.52;100.00;100871.81;5114286;28;20034;-74
2023/09/02 00:13:54;;;;;;;4.07;3.53;;;;;;;22.58;100.00;100939.69;5114106;28;20509;-74
2023/09/02 00:16:19;;;;;;;4.60;3.47;;;;;;;22.72;100.00;100947.44;5114606;28;20028;-75
2023/09/02 00:18:46;;;;;;;5.50;3.13;;;;;;;22.71;100.00;100929.41;5096718;28;20038;-75
2023/09/02 00:21:11;;;;;;;3.72;3.10;;;;;;;22.76;100.00;100932.56;5096733;28;20043;-75
2023/09/02 00:23:39;;;;;;;3.92;3.03;;;;;;;22.86;100.00;100933.59;5114740;28;20484;-75
2023/09/02 00:26:05;;;;;;;3.67;3.20;;;;;;;22.60;100.00;100880.00;5096432;28;20164;-74
2023/09/02 00:28:30;;;;;;;4.85;3.00;;;;;;;22.77;100.00;100929.00;5113837;28;20073;-74
2023/09/02 00:30:56;;;;;;;3.53;3.00;;;;;;;22.71;100.00;100914.69;5114141;28;20042;-74
2023/09/02 00:33:21;;;;;;;4.55;3.08;;;;;;;22.88;100.00;100927.41;5114246;28;20200;-72
2023/09/02 00:35:47;;;;;;;3.85;3.20;;;;;;;22.86;100.00;100884.31;5114368;28;20028;-74
2023/09/02 00:38:12;;;;;;;4.50;3.20;;;;;;;22.74;100.00;100890.31;5114288;28;20032;-74
2023/09/02 00:40:47;;;;;;;3.67;3.10;;;;;;;22.64;100.00;100873.69;5114173;28;20490;-75
2023/09/02 00:43:12;;;;;;;6.60;3.60;;;;;;;22.29;100.00;100914.72;5114336;28;20028;-74
2023/09/02 00:45:37;;;;;;;7.10;3.92;;;;;;;21.99;100.00;100888.91;5113997;28;20050;-74
2023/09/02 00:48:03;;;;;;;6.72;3.97;;;;;;;22.24;100.00;100930.53;5095549;28;20499;-73
2023/09/02 00:50:29;;;;;;;5.25;3.75;;;;;;;21.75;100.00;100868.81;5113841;28;20049;-73
2023/09/02 00:52:54;;;;;;;5.90;3.90;;;;;;;21.95;100.00;100938.38;5113839;28;20119;-73
2023/09/02 00:55:20;;;;;;;5.68;4.03;;;;;;;21.56;100.00;100894.94;5113195;28;20047;-74
2023/09/02 00:57:46;;;;;;;8.35;3.97;;;;;;;21.98;100.00;100958.94;5113217;28;20038;-74
2023/09/02 01:00:13;;;;;;;5.35;4.07;;;;;;;22.08;100.00;100966.09;5113245;28;20379;-74
2023/09/02 01:02:39;;;;;;;5.20;3.65;;;;;;;21.74;100.00;100963.78;5095638;28;20039;-75
2023/09/02 01:05:06;;;;;;;5.10;4.18;;;;;;;21.66;100.00;100947.00;5113751;28;20027;-72
2023/09/02 01:07:33;;;;;;;4.78;3.95;;;;;;;21.33;100.00;101009.31;5113544;28;20035;-73
2023/09/02 01:09:59;;;;;;;4.57;4.05;;;;;;;21.53;100.00;101024.56;5095000;28;20063;-73
2023/09/02 01:12:26;;;;;;;5.82;3.90;;;;;;;21.73;100.00;100974.22;5120940;28;20019;-73
2023/09/02 01:14:51;;;;;;;6.45;4.00;;;;;;;21.63;100.00;100993.81;5123036;28;20100;-75
2023/09/02 01:17:17;;;;;;;6.13;4.10;;;;;;;21.99;100.00;101072.81;5113690;28;20032;-74
2023/09/02 01:19:44;;;;;;;5.65;4.28;;;;;;;21.45;100.00;101109.56;5112867;28;20445;-75
2023/09/02 01:22:27;;;;;;;5.90;3.80;;;;;;;22.12;100.00;101211.13;5113486;28;20084;-74
2023/09/02 01:25:20;;;;;;;4.80;3.80;;;;;;;21.66;100.00;101187.78;5113443;28;20482;-74
2023/09/02 01:27:57;;;;;;;5.85;4.28;;;;;;;21.61;100.00;101171.69;5113209;28;20027;-74
2023/09/02 01:30:26;;;;;;;6.40;4.05;;;;;;;21.30;100.00;101216.47;5095175;28;20033;-74
2023/09/02 01:32:54;;;;;;;5.07;3.90;;;;;;;21.85;100.00;101357.66;5113484;28;20028;-74
2023/09/02 01:35:27;;;;;;;6.78;4.15;;;;;;;21.41;100.00;101361.69;5113071;28;20035;-74
2023/09/02 01:37:55;;;;;;;4.68;3.92;;;;;;;21.49;100.00;101339.66;5113396;28;20485;-74
2023/09/02 01:40:24;;;;;;;4.63;3.90;;;;;;;21.86;100.00;101361.94;5113263;28;20039;-74
2023/09/02 01:42:51;;;;;;;5.80;4.47;;;;;;;21.33;100.00;101281.84;5113280;28;20041;-75
2023/09/02 01:45:18;;;;;;;6.97;4.10;;;;;;;21.41;100.00;101312.53;5113065;28;20063;-75
2023/09/02 01:47:43;;;;;;;5.72;4.60;;;;;;;21.47;100.00;101314.78;5113123;28;20107;-77
2023/09/02 01:50:13;;;;;;;9.55;5.47;;;;;;;21.51;100.00;101388.78;5111742;28;20508;-75
2023/09/02 01:52:39;;;;;;;6.05;5.30;;;;;;;21.61;100.00;101402.09;5112971;28;20051;-75
2023/09/02 01:55:05;;;;;;;8.50;5.20;;;;;;;21.32;100.00;101382.84;5112920;28;20027;-75
2023/09/02 01:57:32;;;;;;;6.25;5.20;;;;;;;21.76;100.00;101466.06;5111820;28;20618;-75
2023/09/02 01:59:57;;;;;;;6.20;5.20;;;;;;;21.37;100.00;101428.28;5129978;27;20034;-71
2023/09/02 02:02:23;;;;;;;5.05;4.55;;;;;;;21.64;100.00;101514.13;5133525;27;20409;-75
2023/09/02 02:04:55;;;;;;;6.15;4.68;;;;;;;21.66;100.00;101537.34;5115156;27;20469;-75
2023/09/02 02:07:26;;;;;;;6.38;4.80;;;;;;;21.52;100.00;101502.63;5133084;27;20030;-75
2023/09/02 02:09:57;;;;;;;5.60;4.57;;;;;;;21.13;100.00;101532.13;5133173;27;20026;-74
2023/09/02 02:12:25;;;;;;;6.93;4.20;;;;;;;21.08;100.00;101560.81;5133660;27;20034;-75
2023/09/02 02:14:50;;;;;;;6.60;4.88;;;;;;;21.41;100.00;101616.16;5133036;27;20260;-75
2023/09/02 02:17:16;;;;;;;6.30;4.43;;;;;;;21.33;100.00;101675.19;5132671;27;20038;-75
2023/09/02 02:19:44;;;;;;;6.90;4.68;;;;;;;21.03;100.00;101668.84;5132858;27;20031;-74
2023/09/02 02:22:10;;;;;;;5.10;4.55;;;;;;;21.20;100.00;101693.94;5132862;27;20031;-74
2023/09/02 02:24:36;;;;;;;6.18;4.50;;;;;;;21.12;100.00;101734.84;5133194;27;20023;-75
2023/09/02 02:27:02;;;;;;;5.05;4.55;;;;;;;21.27;100.00;101810.03;5133056;27;20572;-75
2023/09/02 02:29:28;;;;;;;5.88;4.50;;;;;;;21.47;100.00;101811.81;5132896;27;20027;-74
2023/09/02 02:31:53;;;;;;;4.70;4.20;;;;;;;21.22;100.00;101798.22;5132710;27;20117;-75
2023/09/02 02:34:19;;;;;;;5.10;4.40;;;;;;;21.55;100.00;101880.44;5133040;27;20031;-74
2023/09/02 02:36:44;;;;;;;9.50;4.95;;;;;;;20.56;100.00;101804.41;5132671;27;20053;-74
2023/09/02 02:39:09;;;;;;;5.57;4.60;;;;;;;20.85;100.00;101867.88;5133090;28;20087;-74
2023/09/02 02:41:35;;;;;;;5.03;4.47;;;;;;;20.80;100.00;101968.91;5132636;28;20034;-75
2023/09/02 02:44:01;;;;;;;8.55;4.70;;;;;;;20.98;100.00;102034.63;5132420;28;20054;-75
2023/09/02 02:46:26;;;;;;;5.60;4.97;;;;;;;21.04;100.00;102080.97;5113831;28;20023;-75
2023/09/02 02:48:52;;;;;;;10.98;5.30;;;;;;;20.61;100.00;102059.28;5132814;28;20023;-75
2023/09/02 02:51:18;;;;;;;6.60;5.35;;;;;;;20.69;100.00;102211.56;5132587;28;20034;-75
2023/09/02 02:53:44;;;;;;;9.65;5.47;;;;;;;20.64;100.00;102240.13;5132818;28;20027;-75
2023/09/02 02:56:10;;;;;;;6.57;5.28;;;;;;;20.48;100.00;102292.41;5132537;28;20417;-74
2023/09/02 02:58:35;;;;;;;8.35;4.90;;;;;;;20.87;100.00;102341.97;5132489;28;20024;-76
2023/09/02 03:01:05;;;;;;;6.50;5.25;;;;;;;20.93;100.00;102358.16;5132121;28;20027;-74
2023/09/02 03:03:31;;;;;;;7.90;4.95;;;;;;;20.87;100.00;102301.44;5115037;28;20474;-76
2023/09/02 03:05:59;;;;;;;8.32;4.93;;;;;;;20.79;100.00;102346.56;5132976;28;20035;-76
2023/09/02 03:08:24;;;;;;;8.93;5.30;;;;;;;20.52;100.00;102309.50;5132611;28;20023;-80
2023/09/02 03:11:01;;;;;;;10.30;5.70;;;;;;;20.53;100.00;102314.63;5132613;28;20026;-80
2023/09/02 03:13:33;;;;;;;6.47;4.95;;;;;;;21.02;100.00;102390.66;5132486;28;20027;-76
2023/09/02 03:15:59;;;;;;;7.45;4.80;;;;;;;21.03;100.00;102402.72;5132793;28;20054;-76
2023/09/02 03:18:24;;;;;;;6.60;5.35;;;;;;;20.58;100.00;102354.09;5114270;28;20119;-76
2023/09/02 03:20:50;;;;;;;9.32;5.53;;;;;;;20.78;100.00;102402.59;5134081;27;20038;-77
2023/09/02 03:23:15;;;;;;;10.50;5.40;;;;;;;20.38;100.00;102404.72;5127023;27;20123;-76
2023/09/02 03:25:41;;;;;;;8.95;6.10;;;;;;;20.39;100.00;102435.69;5112783;28;20514;-75
2023/09/02 03:28:06;;;;;;;24.55;16.88;;;;;;;20.10;100.00;102399.47;5114956;28;20476;-77
2023/09/02 03:30:32;;;;;;;14.00;11.70;;;;;;;20.50;100.00;102464.66;5115516;28;20035;-76
2023/09/02 03:32:58;;;;;;;10.73;6.28;;;;;;;20.46;100.00;102495.81;5115574;28;20024;-75
2023/09/02 03:35:24;;;;;;;10.27;5.72;;;;;;;20.03;100.00;102472.84;5097234;28;20051;-74
2023/09/02 03:37:49;;;;;;;15.13;6.50;;;;;;;20.20;100.00;102486.22;5114818;28;20043;-76
2023/09/02 03:40:15;;;;;;;9.73;6.28;;;;;;;20.37;100.00;102509.00;5114680;28;20031;-78
2023/09/02 03:42:41;;;;;;;9.95;5.82;;;;;;;20.27;100.00;102534.25;5115432;28;20541;-77
2023/09/02 03:45:09;;;;;;;12.63;6.15;;;;;;;20.31;100.00;102561.69;5120288;27;20035;-74
2023/09/02 03:47:35;;;;;;;14.57;6.57;;;;;;;20.57;100.00;102586.84;5135281;27;20098;-77
2023/09/02 03:50:00;;;;;;;14.70;6.70;;;;;;;20.45;100.00;102589.75;5135455;27;20027;-75
2023/09/02 03:52:26;;;;;;;10.07;5.95;;;;;;;20.81;100.00;102593.06;5135723;27;20175;-76
2023/09/02 03:54:51;;;;;;;6.00;4.97;;;;;;;20.90;100.00;102528.97;5123003;27;20031;-78
2023/09/02 03:57:17;;;;;;;6.35;4.93;;;;;;;21.08;100.00;102538.81;5097673;28;20043;-74
2023/09/02 03:59:42;;;;;;;5.63;4.38;;;;;;;21.29;100.00;102501.91;5114390;28;20067;-73
2023/09/02 04:02:08;;;;;;;6.45;4.25;;;;;;;20.82;100.00;102370.56;5114567;28;20032;-74
2023/09/02 04:04:33;;;;;;;7.03;4.03;;;;;;;21.34;100.00;102401.66;5113638;28;20718;-75
2023/09/02 04:06:59;;;;;;;6.53;4.22;;;;;;;21.29;100.00;102351.78;5096055;28;20036;-74
2023/09/02 04:09:24;;;;;;;5.63;3.92;;;;;;;21.68;100.00;102336.59;5114175;28;20023;-74
2023/09/02 04:11:50;;;;;;;6.70;4.38;;;;;;;21.21;100.00;102244.25;5114152;28;20417;-72
2023/09/02 04:14:15;;;;;;;5.00;3.97;;;;;;;21.17;100.00;102207.28;5116898;27;20039;-73
2023/09/02 04:16:40;;;;;;;4.80;4.35;;;;;;;21.59;100.00;102236.75;5118005;27;20036;-73
2023/09/02 04:19:06;;;;;;;5.05;4.10;;;;;;;21.53;100.00;102198.16;5096126;28;20406;-73
2023/09/02 04:21:31;;;;;;;4.78;4.25;;;;;;;21.80;100.00;102183.31;5118619;27;20027;-72
2023/09/02 04:23:57;;;;;;;5.28;4.10;;;;;;;21.64;100.00;102138.19;5129002;28;20026;-73
2023/09/02 04:26:22;;;;;;;6.35;4.28;;;;;;;21.59;100.00;102111.63;5142967;27;20459;-72
2023/09/02 04:28:49;;;;;;;5.25;3.92;;;;;;;21.75;100.00;102075.63;5142137;27;20108;-72
2023/09/02 04:31:14;;;;;;;5.65;4.40;;;;;;;21.17;100.00;102040.81;5149939;27;20039;-73
2023/09/02 04:33:40;;;;;;;6.88;4.60;;;;;;;21.74;100.00;102092.91;5113692;28;20035;-72
2023/09/02 04:36:05;;;;;;;6.47;4.32;;;;;;;21.57;100.00;102053.88;5114388;28;20028;-74
2023/09/02 04:38:31;;;;;;;6.32;4.60;;;;;;;21.57;100.00;102048.69;5113737;28;20027;-74
2023/09/02 04:41:01;;;;;;;5.13;4.40;;;;;;;21.50;100.00;102063.63;5114047;28;20040;-73
2023/09/02 04:43:26;;;;;;;10.15;5.00;;;;;;;21.66;100.00;102032.78;5095623;28;20027;-74
2023/09/02 04:45:51;;;;;;;7.50;4.65;;;;;;;22.01;100.00;102085.75;5113923;28;20039;-72
2023/09/02 04:48:17;;;;;;;15.10;5.82;;;;;;;21.36;100.00;101983.09;5113902;28;20405;-73
2023/09/02 04:50:43;;;;;;;9.40;5.50;;;;;;;21.69;100.00;102024.88;5151119;27;20031;-74
2023/09/02 04:53:08;;;;;;;10.55;5.28;;;;;;;22.14;100.00;102074.84;5118446;27;20421;-73
2023/09/02 04:55:38;;;;;;;7.30;5.20;;;;;;;21.88;100.00;102004.28;5113606;27;20058;-74
2023/09/02 04:58:04;;;;;;;5.95;4.47;;;;;;;22.23;100.00;101988.06;5115785;27;20031;-74
2023/09/02 05:00:29;;;;;;;7.45;4.45;;;;;;;22.02;100.00;101944.94;5134345;27;20034;-73
2023/09/02 05:02:55;;;;;;;5.10;3.85;;;;;;;22.39;100.00;101957.94;5144792;27;20066;-75
2023/09/02 05:05:22;;;;;;;5.25;4.65;;;;;;;22.36;100.00;101922.63;5114518;27;20387;-75
2023/09/02 05:07:49;;;;;;;4.80;4.30;;;;;;;22.49;100.00;101896.97;5133713;27;20505;-74
2023/09/02 05:10:15;;;;;;;4.80;4.30;;;;;;;22.54;100.00;101873.44;5133612;27;20023;-73
2023/09/02 05:12:41;;;;;;;5.65;4.32;;;;;;;22.70;100.00;101799.19;5132398;27;20497;-72
2023/09/02 05:15:08;;;;;;;6.20;4.63;;;;;;;22.79;100.00;101776.22;5134545;27;20176;-73
2023/09/02 05:17:33;;;;;;;5.38;4.10;;;;;;;23.12;100.00;101725.22;5124359;27;20358;-73
2023/09/02 05:19:59;;;;;;;5.55;4.65;;;;;;;23.49;100.00;101731.94;5154117;27;20499;-73
2023/09/02 05:22:25;;;;;;;10.32;5.13;;;;;;;23.98;100.00;101761.28;5135809;27;20031;-74
2023/09/02 05:24:51;;;;;;;7.78;5.38;;;;;;;24.24;100.00;101739.06;5144982;27;20023;-73
2023/09/02 05:27:16;;;;;;;8.10;6.47;;;;;;;24.32;100.00;101723.88;5133660;27;20431;-72
2023/09/02 05:29:42;;;;;;;9.00;5.78;;;;;;;24.31;100.00;101698.78;5133156;27;20039;-74
2023/09/02 05:32:12;;;;;;;5.50;5.00;;;;;;;24.71;100.00;101679.94;5133434;27;20079;-76
2023/09/02 05:34:38;;;;;;;8.38;5.20;;;;;;;24.83;100.00;101598.56;5139617;27;20107;-73
2023/09/02 05:37:03;;;;;;;9.57;5.03;;;;;;;25.15;100.00;101627.81;5153758;27;20030;-76
2023/09/02 05:39:29;;;;;;;9.68;4.82;;;;;;;25.21;100.00;101612.66;5147089;27;20031;-71
2023/09/02 05:41:54;;;;;;;4.90;4.40;;;;;;;24.85;100.00;101581.06;5116688;27;20057;-71
2023/09/02 05:44:20;;;;;;;6.90;4.25;;;;;;;25.01;100.00;101571.38;5133828;27;20405;-70
2023/09/02 05:46:45;;;;;;;7.47;4.07;;;;;;;25.32;100.00;101549.44;5137825;27;20424;-73
2023/09/02 05:49:12;;;;;;;6.97;3.70;;;;;;;25.37;100.00;101516.13;5134070;27;20417;-72
2023/09/02 05:51:38;;;;;;;5.85;4.25;;;;;;;25.63;100.00;101486.63;5137904;27;20477;-71
2023/09/02 05:54:03;;;;;;;5.97;4.13;;;;;;;25.23;100.00;101414.63;5113762;27;20027;-70
2023/09/02 05:56:29;;;;;;;6.80;4.30;;;;;;;25.65;100.00;101451.69;5114527;27;20076;-70
2023/09/02 05:58:54;;;;;;;4.93;3.58;;;;;;;25.95;100.00;101420.09;5135000;27;20023;-70
2023/09/02 06:01:20;;;;;;;6.93;4.25;;;;;;;26.16;100.00;101396.97;5135157;27;20054;-72
2023/09/02 06:03:45;;;;;;;5.43;3.72;;;;;;;26.14;100.00;101380.59;5129266;27;20026;-70
2023/09/02 06:06:11;;;;;;;6.82;3.92;;;;;;;26.29;100.00;101362.06;5134280;27;20106;-69
2023/09/02 06:08:37;;;;;;;4.57;3.70;;;;;;;26.12;100.00;101304.25;5122854;27;20031;-72
2023/09/02 06:11:03;;;;;;;3.88;3.20;;;;;;;26.23;100.00;101294.69;5111772;27;20100;-70
2023/09/02 06:13:28;;;;;;;5.28;3.47;;;;;;;26.40;100.00;101290.88;5133559;27;20458;-69
2023/09/02 06:16:02;;;;;;;4.18;3.78;;;;;;;26.74;100.00;101271.00;5132480;27;20027;-71
2023/09/02 06:18:28;;;;;;;4.80;4.07;;;;;;;27.35;100.00;101287.16;5137539;27;20027;-72
2023/09/02 06:20:53;;;;;;;5.07;4.18;;;;;;;27.18;100.00;101237.09;5116264;27;20451;-70
2023/09/02 06:23:19;;;;;;;6.55;4.63;;;;;;;27.47;100.00;101271.47;5093266;28;20032;-70
2023/09/02 06:25:45;;;;;;;7.68;4.93;;;;;;;27.47;100.00;101224.44;5106477;28;20027;-74
2023/09/02 06:28:10;;;;;;;6.05;4.97;;;;;;;27.63;100.00;101258.88;5112707;28;20042;-71
2023/09/02 06:30:36;;;;;;;5.28;4.07;;;;;;;28.26;100.00;101249.38;5112271;27;20409;-73
2023/09/02 06:33:03;;;;;;;5.50;3.65;;;;;;;27.66;100.00;101209.78;5112944;27;20100;-73
2023/09/02 06:35:31;;;;;;;5.10;3.60;;;;;;;28.29;100.00;101261.34;5112171;27;20030;-74
2023/09/02 06:37:57;;;;;;;5.80;3.30;;;;;;;28.19;100.00;101268.28;5112781;28;20486;-75
2023/09/02 06:40:22;;;;;;;3.53;3.22;;;;;;;28.22;100.00;101213.09;5131999;28;20053;-75
2023/09/02 06:42:48;;;;;;;3.58;3.05;;;;;;;27.97;100.00;101255.31;5137304;27;20475;-75
2023/09/02 06:45:13;;;;;;;4.45;3.40;;;;;;;28.84;100.00;101229.69;5146033;27;20050;-74
2023/09/02 06:47:39;;;;;;;6.88;3.58;;;;;;;28.83;100.00;101221.97;5141627;27;20027;-74
2023/09/02 06:50:05;;;;;;;6.55;3.20;;;;;;;28.49;100.00;101168.09;5135722;27;20417;-77
2023/09/02 06:52:30;;;;;;;5.43;3.65;;;;;;;28.95;100.00;101213.06;5112489;28;20031;-73
2023/09/02 06:54:56;;;;;;;4.05;3.65;;;;;;;28.56;100.00;101222.50;5123114;27;20030;-73
2023/09/02 06:57:21;;;;;;;3.97;3.60;;;;;;;28.96;100.00;101220.00;5139034;27;20050;-75
2023/09/02 06:59:46;;;;;;;3.92;3.30;;;;;;;28.85;100.00;101151.94;5139781;27;20034;-73
2023/09/02 07:02:12;;;;;;;4.72;3.10;;;;;;;28.63;100.00;101162.56;5122068;27;20539;-75
2023/09/02 07:04:37;;;;;;;6.18;3.35;;;;;;;28.99;100.00;101157.66;5119688;27;20485;-73
2023/09/02 07:07:03;;;;;;;4.15;3.25;;;;;;;29.16;100.00;101142.31;5129134;27;20488;-75
2023/09/02 07:09:28;;;;;;;3.70;3.17;;;;;;;29.41;100.00;101184.59;5130105;27;20416;-75
2023/09/02 07:11:55;;;;;;;5.00;3.50;;;;;;;29.67;100.00;101164.75;5135875;27;20404;-76
2023/09/02 07:14:20;;;;;;;3.60;3.03;;;;;;;28.85;100.00;101189.44;5136012;27;20027;-76
2023/09/02 07:16:46;;;;;;;5.43;3.22;;;;;;;29.31;100.00;101122.63;5118392;27;20034;-75
2023/09/02 07:19:11;;;;;;;4.88;2.70;;;;;;;29.85;100.00;101172.84;5135782;27;20031;-73
2023/09/02 07:21:37;;;;;;;4.00;2.88;;;;;;;29.31;100.00;101117.38;5135589;27;20027;-75
2023/09/02 07:24:02;;;;;;;4.15;3.10;;;;;;;29.80;100.00;101169.78;5117939;27;20121;-75
2023/09/02 07:26:32;;;;;;;10.82;3.35;;;;;;;30.27;100.00;101155.00;5136205;27;20565;-75
2023/09/02 07:28:57;;;;;;;4.60;3.40;;;;;;;30.18;100.00;101109.44;5118565;27;20462;-75
2023/09/02 07:31:23;;;;;;;3.78;3.38;;;;;;;29.77;100.00;101107.13;5136044;27;20031;-74
2023/09/02 07:33:48;;;;;;;4.68;3.42;;;;;;;29.85;100.00;101115.13;5118028;27;20086;-74
2023/09/02 07:36:14;;;;;;;3.55;2.90;;;;;;;30.26;100.00;101161.22;5117336;27;20520;-75
2023/09/02 07:38:40;;;;;;;6.35;3.42;;;;;;;30.19;100.00;101162.75;5136412;27;20117;-74
2023/09/02 07:41:06;;;;;;;4.35;2.85;;;;;;;29.69;100.00;101167.28;5136507;27;20030;-75
2023/09/02 07:43:32;;;;;;;3.80;2.95;;;;;;;30.06;100.00;101110.53;5138321;27;20023;-75
2023/09/02 07:45:58;;;;;;;4.78;3.00;;;;;;;30.36;100.00;101151.56;5131575;27;20022;-77
2023/09/02 07:48:24;;;;;;;3.78;2.70;;;;;;;30.73;100.00;101141.91;5126963;27;20045;-75
2023/09/02 07:50:50;;;;;;;3.80;2.90;;;;;;;30.45;100.00;101158.59;5137922;27;20035;-74
2023/09/02 07:53:15;;;;;;;6.25;2.95;;;;;;;29.57;100.00;101106.25;5128847;27;20034;-75
2023/09/02 07:55:41;;;;;;;4.72;2.70;;;;;;;30.91;100.00;101119.19;5115771;28;20086;-74
2023/09/02 07:58:07;;;;;;;3.60;3.08;;;;;;;30.89;100.00;101060.72;5107228;28;20590;-73
2023/09/02 08:00:36;;;;;;;4.32;3.20;;;;;;;31.09;100.00;101119.25;5115072;28;20031;-73
2023/09/02 08:03:03;;;;;;;4.75;2.80;;;;;;;30.53;100.00;101119.31;5114704;28;20035;-74
2023/09/02 08:05:29;;;;;;;3.65;2.80;;;;;;;30.91;100.00;101107.84;5130154;27;20386;-73
2023/09/02 08:07:55;;;;;;;4.07;2.80;;;;;;;30.76;100.00;101126.69;5126959;28;20114;-73
2023/09/02 08:10:20;;;;;;;3.00;2.70;;;;;;;30.85;100.00;101124.19;5125691;27;20031;-74
2023/09/02 08:12:46;;;;;;;4.97;3.30;;;;;;;31.15;100.00;101102.91;5113067;28;20034;-75
2023/09/02 08:15:12;;;;;;;3.08;2.53;;;;;;;30.84;100.00;101110.25;5130911;28;20134;-74
2023/09/02 08:17:42;;;;;;;3.10;2.80;;;;;;;30.89;100.00;101117.69;5125946;28;20035;-75
2023/09/02 08:20:08;;;;;;;3.13;2.80;;;;;;;31.52;100.00;101082.59;5128221;28;20084;-74
2023/09/02 08:22:36;;;;;;;6.05;2.92;;;;;;;31.66;100.00;101083.84;5114824;28;20091;-74
2023/09/02 08:25:06;;;;;;;3.83;3.10;;;;;;;30.43;100.00;101042.34;5131935;28;20031;-74
2023/09/02 08:27:31;;;;;;;5.00;2.90;;;;;;;31.47;100.00;101079.59;5132427;28;20102;-74
2023/09/02 08:29:56;;;;;;;2.78;2.42;;;;;;;31.20;100.00;101075.19;5113792;28;20135;-74
2023/09/02 08:32:22;;;;;;;3.00;2.70;;;;;;;32.06;100.00;101056.09;5125697;28;20490;-74
2023/09/02 08:34:47;;;;;;;4.28;2.95;;;;;;;31.08;100.00;101105.28;5128642;28;20127;-74
2023/09/02 08:37:13;;;;;;;3.08;2.70;;;;;;;31.42;100.00;101073.94;5114258;28;20034;-74
2023/09/02 08:39:38;;;;;;;3.65;2.67;;;;;;;31.17;100.00;101075.50;5125063;28;20038;-75
2023/09/02 08:42:05;;;;;;;3.90;2.30;;;;;;;31.86;100.00;101053.78;5128925;28;20031;-75
2023/09/02 08:44:35;;;;;;;4.75;2.70;;;;;;;30.96;100.00;101026.78;5128128;28;20023;-74
2023/09/02 08:47:04;;;;;;;4.65;3.47;;;;;;;31.85;100.00;101062.66;5127875;28;20031;-74
2023/09/02 08:49:29;;;;;;;3.45;3.00;;;;;;;32.64;100.00;101034.38;5127037;28;20034;-75
2023/09/02 08:51:56;;;;;;;5.05;2.85;;;;;;;31.39;100.00;101058.47;5112613;28;20079;-72
2023/09/02 08:54:22;;;;;;;6.00;3.30;;;;;;;31.97;100.00;101054.38;5110635;28;20079;-75
2023/09/02 08:56:51;;;;;;;7.03;3.30;;;;;;;31.10;100.00;101089.38;5069382;27;1264026;-74
2023/09/02 08:59:18;;;;;;;4.35;3.60;;;;;;;31.40;100.00;101076.72;5131679;27;20035;-75
2023/09/02 09:01:45;;;;;;;4.47;3.72;;;;;;;31.55;100.00;101069.16;5126624;27;20035;-75
2023/09/02 09:04:14;;;;;;;3.40;2.90;;;;;;;31.18;100.00;101026.38;5111634;27;20090;-76
2023/09/02 09:06:40;;;;;;;5.28;3.13;;;;;;;31.20;100.00;101009.44;5110747;27;20405;-73
2023/09/02 09:09:10;;;;;;;3.80;3.33;;;;;;;32.19;100.00;101035.44;5107371;27;20035;-75
2023/09/02 09:11:42;;;;;;;5.05;3.42;;;;;;;31.49;100.00;100964.53;5132069;27;20023;-74
2023/09/02 09:14:16;;;;;;;;;;;;;;;31.80;100.00;101052.59;5115030;27;20125;-73
2023/09/02 09:16:42;;;;;;;5.78;3.50;;;;;;;32.00;100.00;101040.09;5127745;27;19934;-75
2023/09/02 09:19:07;;;;;;;4.43;3.38;;;;;;;32.12;100.00;100967.75;5128482;27;20027;-73
2023/09/02 09:21:33;;;;;;;5.68;3.38;;;;;;;31.66;100.00;101054.91;5114136;27;20034;-74
2023/09/02 09:23:58;;;;;;;5.80;3.08;;;;;;;32.83;100.00;101013.00;5123030;27;20024;-74
2023/09/02 09:26:25;;;;;;;7.30;3.08;;;;;;;33.04;100.00;101000.25;5126034;27;20026;-74
2023/09/02 09:28:58;;;;;;;3.35;3.05;;;;;;;32.33;100.00;101011.16;5128320;27;20035;-74
2023/09/02 09:31:25;;;;;;;3.65;3.17;;;;;;;32.44;100.00;101015.31;5128782;27;20109;-75
2023/09/02 09:33:59;;;;;;;4.88;3.20;;;;;;;32.63;100.00;101023.00;5128735;27;20529;-75
2023/09/02 09:36:28;;;;;;;3.75;3.08;;;;;;;32.12;100.00;101031.78;5125843;27;20084;-74
2023/09/02 09:38:56;;;;;;;7.88;3.42;;;;;;;31.76;100.00;101060.94;5128058;27;20031;-72
2023/09/02 09:41:23;;;;;;;4.75;3.47;;;;;;;31.75;100.00;100970.66;5125392;27;20027;-75
2023/09/02 09:44:05;;;;;;;6.50;3.20;;;;;;;32.44;100.00;101033.75;5133942;27;20027;-74
2023/09/02 09:46:33;;;;;;;5.15;3.22;;;;;;;31.83;100.00;100978.59;5114784;27;20035;-74
2023/09/02 09:49:01;;;;;;;6.07;3.15;;;;;;;32.91;100.00;100999.84;5129550;27;20516;-72
2023/09/02 09:51:27;;;;;;;3.85;3.17;;;;;;;32.30;100.00;101037.81;5127374;27;20109;-75
2023/09/02 09:53:53;;;;;;;4.72;3.80;;;;;;;31.37;100.00;101073.56;5132702;27;20035;-73
2023/09/02 09:56:19;;;;;;;3.78;3.20;;;;;;;31.26;100.00;101079.00;5114320;27;20076;-72
2023/09/02 09:58:45;;;;;;;4.85;3.55;;;;;;;31.58;100.00;101010.97;5114340;27;20035;-72
2023/09/02 10:01:20;;;;;;;5.38;3.47;;;;;;;33.09;100.00;100976.84;5113835;27;20035;-72
2023/09/02 10:03:45;;;;;;;3.83;3.10;;;;;;;31.75;100.00;101032.97;5132415;27;20080;-71
2023/09/02 10:06:11;;;;;;;4.10;3.40;;;;;;;32.05;100.00;100954.38;5131853;27;20023;-72
2023/09/02 10:08:50;;;;;;;4.38;3.33;;;;;;;32.09;100.00;101013.66;5113494;27;20042;-72
2023/09/02 10:11:21;;;;;;;4.57;3.80;;;;;;;32.58;100.00;101000.75;5131761;27;20076;-74
2023/09/02 10:13:48;;;;;;;6.55;3.17;;;;;;;31.36;100.00;100975.41;5114041;27;20038;-73
2023/09/02 10:16:15;;;;;;;4.43;3.35;;;;;;;32.54;100.00;100996.78;5114009;27;20049;-73
2023/09/02 10:18:42;;;;;;;3.20;2.90;;;;;;;33.68;100.00;100923.75;5131009;27;20031;-73
2023/09/02 10:21:09;;;;;;;5.30;3.72;;;;;;;31.91;100.00;100978.63;5131813;27;20505;-73
2023/09/02 10:23:36;;;;;;;6.20;3.60;;;;;;;32.08;100.00;101033.06;5132248;27;20378;-73
2023/09/02 10:26:08;;;;;;;4.45;3.20;;;;;;;31.84;100.00;100930.22;5130673;27;20056;-73
2023/09/02 10:28:40;;;;;;;6.97;3.30;;;;;;;32.01;100.00;101002.25;5132209;27;20035;-74
2023/09/02 10:31:22;;;;;;;5.45;2.85;;;;;;;32.97;100.00;100978.16;5113608;27;20090;-75
2023/09/02 10:34:03;;;;;;;4.13;3.10;;;;;;;33.54;100.00;100953.44;5131480;27;20035;-73
2023/09/02 10:36:33;;;;;;;5.30;2.90;;;;;;;32.91;100.00;100918.97;5132733;27;20023;-74
2023/09/02 10:39:03;;;;;;;3.50;2.88;;;;;;;32.08;100.00;100961.16;5114663;28;20019;-73
2023/09/02 10:41:30;;;;;;;5.00;2.90;;;;;;;32.73;100.00;100894.56;5132086;28;20083;-73
2023/09/02 10:43:55;;;;;;;4.03;3.00;;;;;;;32.84;100.00;100930.31;5131046;28;20031;-74
2023/09/02 10:46:21;;;;;;;3.80;3.03;;;;;;;33.31;100.00;100912.06;5113149;28;20216;-73
2023/09/02 10:48:48;;;;;;;3.80;3.25;;;;;;;32.05;100.00;101033.38;5132130;27;20481;-73
2023/09/02 10:51:14;;;;;;;3.65;3.10;;;;;;;32.33;100.00;100976.06;5114034;28;20172;-74
2023/09/02 10:53:52;;;;;;;5.25;3.05;;;;;;;32.54;100.00;100991.50;5113792;28;20044;-73
2023/09/02 10:56:23;;;;;;;4.18;3.05;;;;;;;32.93;100.00;100977.63;5113095;28;20047;-74
2023/09/02 10:58:48;;;;;;;7.25;3.20;;;;;;;33.50;100.00;100909.91;5118985;28;20450;-74
2023/09/02 11:01:14;;;;;;;3.60;3.05;;;;;;;33.21;100.00;100972.91;5128121;28;20034;-74
2023/09/02 11:03:43;;;;;;;4.28;3.30;;;;;;;33.56;100.00;100898.69;5134985;28;20027;-73
2023/09/02 11:06:11;;;;;;;3.50;3.20;;;;;;;32.73;100.00;100928.81;5113491;28;20444;-73
2023/09/02 11:08:45;;;;;;;3.10;2.78;;;;;;;32.71;100.00;100957.13;5113333;28;20031;-72
2023/09/02 11:11:11;;;;;;;5.30;3.22;;;;;;;32.34;100.00;100939.06;5131739;28;20486;-73
2023/09/02 11:14:08;;;;;;;5.15;4.10;;;;;;;34.06;100.00;100917.72;5132114;28;20027;-72
2023/09/02 11:16:42;;;;;;;4.25;3.00;;;;;;;33.21;100.00;100893.78;5131632;28;20024;-72